createdAt,value
2023-05-03T00:03:23.895Z,16.70
2023-05-03T00:08:26.599Z,16.60
2023-05-03T00:13:29.166Z,14.80
2023-05-03T00:18:32.081Z,11.70
2023-05-03T00:23:34.669Z,10.90
2023-05-03T00:28:37.280Z,8.60
2023-05-03T00:33:40.799Z,16.90
2023-05-03T00:38:43.544Z,15.80
2023-05-03T00:43:46.194Z,16.40
2023-05-03T00:48:49.588Z,10.20
2023-05-03T00:53:52.227Z,12.80
2023-05-03T00:58:55.499Z,11.00
2023-05-03T01:04:01.255Z,10.00
2023-05-03T01:09:43.780Z,8.40
2023-05-03T01:15:01.888Z,10.30
2023-05-03T01:20:11.737Z,14.20
2023-05-03T01:25:16.464Z,13.40
2023-05-03T01:30:25.238Z,10.20
2023-05-03T01:35:42.434Z,14.80
2023-05-03T01:40:55.640Z,7.90
2023-05-03T01:45:59.525Z,13.30
2023-05-03T01:51:02.193Z,9.20
2023-05-03T01:56:05.951Z,7.10
2023-05-03T02:01:09.636Z,13.20
2023-05-03T02:06:12.394Z,12.20
2023-05-03T02:11:15.265Z,10.20
2023-05-03T02:16:18.745Z,9.50
2023-05-03T02:21:21.358Z,9.00
2023-05-03T02:26:23.920Z,7.30
2023-05-03T02:31:27.127Z,7.80
2023-05-03T02:36:32.099Z,8.00
2023-05-03T02:41:34.992Z,12.50
2023-05-03T02:46:37.589Z,13.00
2023-05-03T02:51:40.285Z,10.80
2023-05-03T02:56:42.819Z,14.10
2023-05-03T03:01:47.045Z,12.50
2023-05-03T03:06:49.689Z,7.40
2023-05-03T03:11:53.412Z,9.10
2023-05-03T03:16:58.602Z,10.30
2023-05-03T03:22:01.144Z,12.80
2023-05-03T03:27:03.780Z,12.80
2023-05-03T03:32:07.218Z,11.50
2023-05-03T03:37:10.097Z,11.80
2023-05-03T03:42:15.593Z,18.40
2023-05-03T03:47:18.331Z,11.50
2023-05-03T03:52:21.291Z,10.60
2023-05-03T03:57:25.217Z,7.80
2023-05-03T04:02:28.058Z,9.40
2023-05-03T04:07:31.000Z,9.10
2023-05-03T04:12:34.095Z,7.90
2023-05-03T04:17:36.764Z,9.20
2023-05-03T04:22:40.500Z,7.90
2023-05-03T04:27:45.011Z,8.20
2023-05-03T04:32:47.693Z,8.20
2023-05-03T04:37:50.316Z,9.50
2023-05-03T04:42:52.931Z,9.40
2023-05-03T04:47:55.717Z,8.90
2023-05-03T04:52:59.353Z,7.40
2023-05-03T04:58:02.117Z,7.10
2023-05-03T05:03:06.373Z,6.70
2023-05-03T05:08:09.117Z,6.30
2023-05-03T05:13:11.935Z,7.00
2023-05-03T05:18:14.543Z,6.50
2023-05-03T05:23:17.153Z,5.90
2023-05-03T05:28:19.751Z,6.60
2023-05-03T05:33:22.807Z,6.70
2023-05-03T05:38:25.608Z,7.80
2023-05-03T05:43:28.655Z,7.90
2023-05-03T05:48:31.258Z,9.20
2023-05-03T05:53:33.822Z,7.10
2023-05-03T05:58:37.546Z,8.30
2023-05-03T06:03:40.323Z,10.80
2023-05-03T06:08:42.873Z,7.80
2023-05-03T06:13:45.670Z,8.90
2023-05-03T06:18:48.214Z,7.30
2023-05-03T06:23:50.811Z,7.50
2023-05-03T06:28:53.429Z,7.30
2023-05-03T06:33:56.348Z,8.00
2023-05-03T06:38:58.965Z,6.90
2023-05-03T06:44:01.528Z,7.60
2023-05-03T06:49:04.323Z,6.50
2023-05-03T06:54:09.321Z,6.60
2023-05-03T06:59:12.257Z,5.70
2023-05-03T07:04:14.993Z,6.60
2023-05-03T07:09:21.978Z,6.10
2023-05-03T07:14:28.859Z,6.50
2023-05-03T07:19:32.105Z,6.00
2023-05-03T07:24:34.735Z,5.90
2023-05-03T07:29:37.385Z,5.30
2023-05-03T07:34:40.084Z,5.10
2023-05-03T07:39:42.688Z,5.30
2023-05-03T07:44:45.320Z,5.30
2023-05-03T07:49:50.741Z,7.00
2023-05-03T07:54:53.570Z,6.20
2023-05-03T07:59:56.535Z,4.90
2023-05-03T08:04:59.559Z,7.10
2023-05-03T08:10:03.212Z,6.30
2023-05-03T08:15:07.562Z,5.10
2023-05-03T08:20:11.922Z,4.40
2023-05-03T08:25:17.697Z,4.90
2023-05-03T08:30:22.100Z,5.80
2023-05-03T08:35:25.373Z,5.10
2023-05-03T08:40:29.202Z,4.40
2023-05-03T08:45:33.564Z,5.10
2023-05-03T08:50:42.232Z,4.30
2023-05-03T08:55:45.704Z,3.40
2023-05-03T09:00:48.396Z,4.40
2023-05-03T09:05:50.965Z,4.60
2023-05-03T09:10:54.053Z,4.50
2023-05-03T09:15:58.003Z,5.30
2023-05-03T09:21:00.759Z,4.70
2023-05-03T09:26:03.811Z,3.80
2023-05-03T09:31:07.772Z,6.00
2023-05-03T09:36:11.508Z,3.70
2023-05-03T09:41:15.720Z,5.20
2023-05-03T09:46:19.397Z,4.00
2023-05-03T09:51:23.759Z,4.50
2023-05-03T09:56:26.789Z,4.50
2023-05-03T10:01:31.541Z,5.60
2023-05-03T10:06:44.289Z,4.60
2023-05-03T10:11:59.021Z,4.60
2023-05-03T10:17:43.679Z,5.00
2023-05-03T10:23:05.736Z,3.90
2023-05-03T10:28:09.823Z,4.80
2023-05-03T10:33:12.565Z,5.30
2023-05-03T10:38:17.299Z,4.80
2023-05-03T10:43:29.520Z,4.80
2023-05-03T10:48:33.745Z,4.90
2023-05-03T10:53:42.659Z,3.30
2023-05-03T10:58:51.158Z,3.50
2023-05-03T11:04:34.637Z,4.40
2023-05-03T11:09:37.435Z,5.20
2023-05-03T11:14:42.394Z,5.00
2023-05-03T11:19:45.195Z,4.10
2023-05-03T11:24:47.867Z,4.10
2023-05-03T11:29:51.062Z,4.10
2023-05-03T11:34:54.052Z,4.30
2023-05-03T11:39:56.645Z,4.20
2023-05-03T11:45:01.835Z,4.30
2023-05-03T11:50:05.618Z,4.60
2023-05-03T11:55:10.825Z,4.10
2023-05-03T12:00:20.264Z,3.80
2023-05-03T12:05:23.503Z,4.90
2023-05-03T12:10:33.614Z,4.30
2023-05-03T12:15:40.493Z,4.90
2023-05-03T12:21:29.131Z,7.00
2023-05-03T12:26:08.248Z,5.10
2023-05-03T12:31:13.144Z,6.60
2023-05-03T12:36:16.718Z,5.30
2023-05-03T12:41:52.015Z,5.00
2023-05-03T12:46:44.889Z,4.80
2023-05-03T12:51:55.447Z,4.90
2023-05-03T12:57:08.948Z,4.90
2023-05-03T13:07:27.181Z,4.90
2023-05-03T13:12:33.750Z,4.50
2023-05-03T13:17:36.840Z,3.70
2023-05-03T13:22:39.576Z,4.60
2023-05-03T13:27:42.162Z,3.90
2023-05-03T13:32:44.737Z,4.30
2023-05-03T13:37:47.436Z,4.10
2023-05-03T13:42:50.003Z,3.90
2023-05-03T13:48:12.103Z,3.70
2023-05-03T13:53:15.325Z,4.40
2023-05-03T13:58:17.940Z,3.30
2023-05-03T14:03:20.737Z,3.70
2023-05-03T14:08:23.510Z,5.00
2023-05-03T14:13:29.678Z,4.40
2023-05-03T14:18:35.738Z,4.40
2023-05-03T14:23:39.553Z,4.50
2023-05-03T14:28:42.225Z,5.40
2023-05-03T14:33:44.937Z,4.60
2023-05-03T14:38:47.768Z,3.90
2023-05-03T14:43:50.465Z,4.20
2023-05-03T14:48:53.152Z,3.30
2023-05-03T14:53:55.831Z,5.50
2023-05-03T14:59:00.374Z,4.00
2023-05-03T15:04:04.320Z,4.60
2023-05-03T15:09:08.683Z,4.70
2023-05-03T15:14:11.631Z,4.30
2023-05-03T15:19:14.341Z,6.70
2023-05-03T15:24:18.078Z,4.60
2023-05-03T15:29:21.696Z,3.10
2023-05-03T15:34:24.452Z,3.60
2023-05-03T15:39:27.014Z,3.20
2023-05-03T15:44:29.541Z,5.30
2023-05-03T15:49:32.070Z,6.50
2023-05-03T15:54:34.606Z,6.10
2023-05-03T15:59:37.438Z,3.80
2023-05-03T16:04:40.369Z,4.60
2023-05-03T16:09:44.502Z,6.50
2023-05-03T16:14:47.327Z,4.80
2023-05-03T16:19:49.938Z,4.70
2023-05-03T16:24:55.923Z,5.20
2023-05-03T16:29:58.515Z,3.50
2023-05-03T16:35:04.436Z,3.50
2023-05-03T16:40:11.584Z,4.10
2023-05-03T16:45:16.885Z,2.90
2023-05-03T16:50:20.224Z,5.30
2023-05-03T16:55:23.253Z,5.60
2023-05-03T17:00:25.868Z,4.10
2023-05-03T17:05:33.275Z,4.10
2023-05-03T17:10:39.219Z,4.40
2023-05-03T17:15:41.935Z,7.60
2023-05-03T17:20:44.521Z,4.60
2023-05-03T17:25:48.423Z,3.90
2023-05-03T17:30:51.136Z,5.00
2023-05-03T17:36:00.650Z,4.50
2023-05-03T17:41:07.911Z,4.10
2023-05-03T17:46:14.233Z,4.10
2023-05-03T17:51:17.008Z,10.00
2023-05-03T17:56:19.671Z,16.70
2023-05-03T18:01:22.333Z,13.40
2023-05-03T18:06:25.311Z,8.90
2023-05-03T18:11:27.890Z,8.80
2023-05-03T18:16:30.516Z,10.50
2023-05-03T18:21:35.433Z,8.70
2023-05-03T18:26:38.338Z,9.60
2023-05-03T18:31:41.681Z,11.50
2023-05-03T18:36:44.356Z,14.60
2023-05-03T18:41:46.965Z,12.20
2023-05-03T18:46:49.639Z,12.40
2023-05-03T18:51:52.346Z,13.40
2023-05-03T18:56:55.475Z,18.50
2023-05-03T19:01:58.084Z,16.90
2023-05-03T19:07:00.997Z,17.60
2023-05-03T19:12:04.333Z,18.70
2023-05-03T19:17:08.382Z,18.90
2023-05-03T19:22:11.584Z,29.50
2023-05-03T19:27:14.161Z,20.20
2023-05-03T19:32:16.688Z,16.30
2023-05-03T19:37:19.497Z,14.80
2023-05-03T19:42:22.065Z,14.20
2023-05-03T19:47:24.734Z,14.10
2023-05-03T19:52:27.328Z,14.50
2023-05-03T19:57:29.928Z,19.30
2023-05-03T20:02:36.499Z,27.20
2023-05-03T20:07:39.486Z,22.30
2023-05-03T20:12:42.201Z,13.00
2023-05-03T20:17:44.926Z,20.40
2023-05-03T20:22:50.947Z,17.40
2023-05-03T20:27:53.498Z,16.70
2023-05-03T20:32:56.131Z,14.60
2023-05-03T20:37:58.965Z,21.50
2023-05-03T20:43:02.014Z,17.70
2023-05-03T20:48:05.586Z,18.80
2023-05-03T20:53:08.364Z,16.50
2023-05-03T20:58:12.252Z,19.30
2023-05-03T21:03:15.496Z,19.30
2023-05-03T21:08:18.649Z,14.30
2023-05-03T21:13:21.331Z,13.00
2023-05-03T21:18:24.999Z,12.60
2023-05-03T21:23:27.656Z,9.10
2023-05-03T21:28:32.229Z,10.90
2023-05-03T21:33:34.918Z,7.90
2023-05-03T21:38:37.886Z,8.40
2023-05-03T21:43:40.415Z,9.50
2023-05-03T21:48:43.632Z,11.00
2023-05-03T21:53:46.162Z,9.80
2023-05-03T21:58:48.728Z,10.30
2023-05-03T22:03:51.807Z,13.20
2023-05-03T22:08:54.921Z,15.20
2023-05-03T22:14:07.419Z,11.00
2023-05-03T22:19:11.975Z,13.60
2023-05-03T22:24:14.534Z,13.80
2023-05-03T22:29:17.675Z,9.20
2023-05-03T22:34:20.350Z,7.80
2023-05-03T22:39:23.829Z,7.10
2023-05-03T22:44:26.960Z,5.80
2023-05-03T22:49:29.862Z,8.40
2023-05-03T22:54:32.451Z,8.10
2023-05-03T22:59:34.984Z,7.80
2023-05-03T23:04:37.564Z,7.80
2023-05-03T23:09:40.202Z,8.40
2023-05-03T23:14:45.743Z,8.60
2023-05-03T23:19:48.405Z,8.00
2023-05-03T23:24:51.048Z,7.00
2023-05-03T23:29:53.890Z,6.20
2023-05-03T23:34:57.822Z,6.50
2023-05-03T23:40:00.376Z,7.30
2023-05-03T23:45:03.345Z,7.20
2023-05-03T23:50:07.665Z,11.40
2023-05-03T23:55:10.946Z,20.10
